createdAt,value
2019-04-26T00:01:18.848Z,1.60
2019-04-26T00:06:48.249Z,1.60
2019-04-26T00:09:34.984Z,1.67
2019-04-26T00:12:30.875Z,1.90
2019-04-26T00:15:22.892Z,2.00
2019-04-26T00:18:14.654Z,2.00
2019-04-26T00:20:48.339Z,2.00
2019-04-26T00:23:22.656Z,1.90
2019-04-26T00:25:57.659Z,2.00
2019-04-26T00:28:46.397Z,1.50
2019-04-26T00:31:19.996Z,1.60
2019-04-26T00:33:53.686Z,1.50
2019-04-26T00:36:28.232Z,1.50
2019-04-26T00:39:02.898Z,1.40
2019-04-26T00:41:37.444Z,1.60
2019-04-26T00:44:10.961Z,1.50
2019-04-26T00:46:48.483Z,1.50
2019-04-26T00:49:42.930Z,1.30
2019-04-26T00:52:08.958Z,1.50
2019-04-26T00:54:43.189Z,1.53
2019-04-26T00:57:29.184Z,1.43
2019-04-26T01:00:18.534Z,1.50
2019-04-26T01:03:02.381Z,1.30
2019-04-26T01:05:44.852Z,1.90
2019-04-26T01:08:19.251Z,1.60
2019-04-26T01:10:52.749Z,1.50
2019-04-26T01:13:35.340Z,1.90
2019-04-26T01:16:18.367Z,1.50
2019-04-26T01:19:00.893Z,1.87
2019-04-26T01:21:48.684Z,1.60
2019-04-26T01:24:34.381Z,1.70
2019-04-26T01:27:10.798Z,1.50
2019-04-26T01:29:47.364Z,1.70
2019-04-26T01:32:22.074Z,1.70
2019-04-26T01:35:10.359Z,1.70
2019-04-26T01:37:48.124Z,2.00
2019-04-26T01:40:34.837Z,1.80
2019-04-26T01:43:29.547Z,1.97
2019-04-26T01:46:10.278Z,2.00
2019-04-26T01:48:51.711Z,1.90
2019-04-26T01:51:53.722Z,1.73
2019-04-26T01:54:31.868Z,1.60
2019-04-26T01:57:15.847Z,2.00
2019-04-26T01:59:55.068Z,1.93
2019-04-26T02:02:50.295Z,1.77
2019-04-26T02:05:43.590Z,2.00
2019-04-26T02:08:17.263Z,1.80
2019-04-26T02:10:51.094Z,2.13
2019-04-26T02:13:26.832Z,1.97
2019-04-26T02:16:09.328Z,2.20
2019-04-26T02:18:46.730Z,2.23
2019-04-26T02:21:48.058Z,2.00
2019-04-26T02:24:26.459Z,1.83
2019-04-26T02:27:01.760Z,1.77
2019-04-26T02:29:55.770Z,2.20
2019-04-26T02:32:32.739Z,2.20
2019-04-26T02:35:16.087Z,1.80
2019-04-26T02:37:58.683Z,2.00
2019-04-26T02:40:41.009Z,1.80
2019-04-26T02:43:16.842Z,2.23
2019-04-26T02:46:11.646Z,1.93
2019-04-26T02:49:19.968Z,1.90
2019-04-26T02:52:03.668Z,1.83
2019-04-26T02:54:48.383Z,2.13
2019-04-26T02:57:59.324Z,1.97
2019-04-26T03:00:33.887Z,2.40
2019-04-26T03:03:18.594Z,1.97
2019-04-26T03:05:53.222Z,1.87
2019-04-26T03:08:35.304Z,1.80
2019-04-26T03:11:17.916Z,1.73
2019-04-26T03:14:15.734Z,1.87
2019-04-26T03:17:17.849Z,1.97
2019-04-26T03:20:13.923Z,2.00
2019-04-26T03:23:09.966Z,2.30
2019-04-26T03:26:01.360Z,2.20
2019-04-26T03:29:08.567Z,1.90
2019-04-26T03:32:17.713Z,2.20
2019-04-26T03:35:36.873Z,2.13
2019-04-26T03:38:20.699Z,2.03
2019-04-26T03:41:34.369Z,1.80
2019-04-26T03:44:15.495Z,1.97
2019-04-26T03:47:05.868Z,2.17
2019-04-26T03:50:28.043Z,2.30
2019-04-26T03:53:35.461Z,2.43
2019-04-26T03:56:21.021Z,3.10
2019-04-26T03:59:35.201Z,2.80
2019-04-26T04:02:49.818Z,2.53
2019-04-26T04:05:33.992Z,2.60
2019-04-26T04:08:11.789Z,2.70
2019-04-26T04:10:57.841Z,2.70
2019-04-26T04:13:53.822Z,3.37
2019-04-26T04:17:30.749Z,2.80
2019-04-26T04:20:48.128Z,3.10
2019-04-26T04:23:53.085Z,3.00
2019-04-26T04:26:50.065Z,2.90
2019-04-26T04:30:01.855Z,3.20
2019-04-26T04:33:07.806Z,3.60
2019-04-26T04:35:50.234Z,3.20
2019-04-26T04:39:12.174Z,2.70
2019-04-26T04:42:08.723Z,3.13
2019-04-26T04:45:26.114Z,3.20
2019-04-26T04:48:20.505Z,3.53
2019-04-26T04:51:32.335Z,3.67
2019-04-26T04:54:16.376Z,3.83
2019-04-26T04:57:36.498Z,3.43
2019-04-26T05:00:53.453Z,3.57
2019-04-26T05:03:45.057Z,3.50
2019-04-26T05:06:47.233Z,3.53
2019-04-26T05:09:33.791Z,3.90
2019-04-26T05:12:30.965Z,4.00
2019-04-26T05:15:50.999Z,4.00
2019-04-26T05:18:48.564Z,4.10
2019-04-26T05:21:39.919Z,4.27
2019-04-26T05:24:38.224Z,4.43
2019-04-26T05:27:50.930Z,4.33
2019-04-26T05:31:18.049Z,5.53
2019-04-26T05:34:36.063Z,5.47
2019-04-26T05:37:55.671Z,6.07
2019-04-26T05:41:06.074Z,5.23
2019-04-26T05:43:56.534Z,5.90
2019-04-26T05:46:59.466Z,6.13
2019-04-26T05:50:41.986Z,6.23
2019-04-26T05:54:36.836Z,7.63
2019-04-26T05:57:44.518Z,7.70
2019-04-26T06:00:43.655Z,7.60
2019-04-26T06:03:50.969Z,8.30
2019-04-26T06:06:31.310Z,7.70
2019-04-26T06:10:05.421Z,8.00
2019-04-26T06:13:00.545Z,7.97
2019-04-26T06:16:08.090Z,8.37
2019-04-26T06:19:26.820Z,7.37
2019-04-26T06:22:07.228Z,7.03
2019-04-26T06:25:14.373Z,6.60
2019-04-26T06:28:23.722Z,6.43
2019-04-26T06:31:07.803Z,6.17
2019-04-26T06:34:01.405Z,6.50
2019-04-26T06:36:48.157Z,6.13
2019-04-26T06:39:55.975Z,6.00
2019-04-26T06:43:19.534Z,5.43
2019-04-26T06:46:39.151Z,5.93
2019-04-26T06:49:35.088Z,5.70
2019-04-26T06:52:13.261Z,5.00
2019-04-26T06:59:17.205Z,4.87
2019-04-26T07:02:28.720Z,5.00
2019-04-26T07:05:18.458Z,4.57
2019-04-26T07:08:25.908Z,4.40
2019-04-26T07:12:01.596Z,4.40
2019-04-26T07:15:27.926Z,4.73
2019-04-26T07:18:13.676Z,4.40
2019-04-26T07:21:11.791Z,4.93
2019-04-26T07:24:35.842Z,4.40
2019-04-26T07:28:10.617Z,4.83
2019-04-26T07:31:15.207Z,4.53
2019-04-26T07:34:19.312Z,4.70
2019-04-26T07:37:38.992Z,4.90
2019-04-26T07:40:53.458Z,5.20
2019-04-26T07:44:01.000Z,4.90
2019-04-26T07:47:16.233Z,5.10
2019-04-26T07:50:29.681Z,4.70
2019-04-26T07:53:55.344Z,4.43
2019-04-26T07:57:15.386Z,4.60
2019-04-26T08:00:17.852Z,4.40
2019-04-26T08:03:10.897Z,4.90
2019-04-26T08:06:13.763Z,4.67
2019-04-26T08:08:57.938Z,5.10
2019-04-26T08:11:53.428Z,4.97
2019-04-26T08:14:51.036Z,5.60
2019-04-26T08:17:48.801Z,4.70
2019-04-26T08:20:43.704Z,4.80
2019-04-26T08:23:39.264Z,4.40
2019-04-26T08:26:19.354Z,4.50
2019-04-26T08:28:56.668Z,4.50
2019-04-26T08:31:33.955Z,4.83
2019-04-26T08:34:20.626Z,5.20
2019-04-26T08:37:06.706Z,4.63
2019-04-26T08:39:45.589Z,4.50
2019-04-26T08:42:23.488Z,4.40
2019-04-26T08:45:13.568Z,4.23
2019-04-26T08:48:13.671Z,4.53
2019-04-26T08:50:49.236Z,5.00
2019-04-26T08:53:25.347Z,5.50
2019-04-26T08:56:01.637Z,5.20
2019-04-26T08:58:38.796Z,4.80
2019-04-26T09:01:42.133Z,5.07
2019-04-26T09:04:52.277Z,5.27
2019-04-26T09:07:48.726Z,5.27
2019-04-26T09:10:34.295Z,4.50
2019-04-26T09:13:10.578Z,5.00
2019-04-26T09:16:17.769Z,5.47
2019-04-26T09:18:54.157Z,4.93
2019-04-26T09:21:32.883Z,4.30
2019-04-26T09:24:34.115Z,5.47
2019-04-26T09:27:12.775Z,5.80
2019-04-26T09:30:04.894Z,6.23
2019-04-26T09:32:58.336Z,6.43
2019-04-26T09:35:33.240Z,6.53
2019-04-26T09:38:06.437Z,6.47
2019-04-26T09:40:48.536Z,6.47
2019-04-26T09:43:30.650Z,6.10
2019-04-26T09:46:52.872Z,6.30
2019-04-26T09:49:32.906Z,6.60
2019-04-26T09:52:09.954Z,6.50
2019-04-26T09:54:43.704Z,5.77
2019-04-26T09:57:17.161Z,6.60
2019-04-26T09:59:51.486Z,6.90
2019-04-26T10:02:35.940Z,6.03
2019-04-26T10:05:22.408Z,6.50
2019-04-26T10:07:53.332Z,6.40
2019-04-26T10:10:30.936Z,5.77
2019-04-26T10:13:16.256Z,6.03
2019-04-26T10:16:17.601Z,7.03
2019-04-26T10:18:58.340Z,6.10
2019-04-26T10:21:34.264Z,6.60
2019-04-26T10:24:08.690Z,5.53
2019-04-26T10:26:50.832Z,7.00
2019-04-26T10:29:25.712Z,6.53
2019-04-26T10:32:08.916Z,6.07
2019-04-26T10:34:46.935Z,7.17
2019-04-26T10:37:17.651Z,6.80
2019-04-26T10:39:51.142Z,7.03
2019-04-26T10:42:25.024Z,6.57
2019-04-26T10:44:58.863Z,6.17
2019-04-26T10:47:34.294Z,7.37
2019-04-26T10:50:16.747Z,7.07
2019-04-26T10:53:08.933Z,7.20
2019-04-26T10:55:59.881Z,7.50
2019-04-26T10:58:59.156Z,7.10
2019-04-26T11:01:53.902Z,7.67
2019-04-26T11:04:29.122Z,6.67
2019-04-26T11:07:11.675Z,6.23
2019-04-26T11:09:44.989Z,6.07
2019-04-26T11:12:19.146Z,6.83
2019-04-26T11:15:01.421Z,6.37
2019-04-26T11:17:36.178Z,6.70
2019-04-26T11:20:10.542Z,6.10
2019-04-26T11:22:45.002Z,6.57
2019-04-26T11:25:18.332Z,6.03
2019-04-26T11:27:52.382Z,6.13
2019-04-26T11:30:25.893Z,5.73
2019-04-26T11:32:59.791Z,6.20
2019-04-26T11:35:34.758Z,6.17
2019-04-26T11:38:10.835Z,6.80
2019-04-26T11:40:44.312Z,6.57
2019-04-26T11:43:28.566Z,7.13
2019-04-26T11:46:04.529Z,7.27
2019-04-26T11:48:37.095Z,7.50
2019-04-26T11:51:10.998Z,7.60
2019-04-26T11:53:55.089Z,6.97
2019-04-26T11:56:28.541Z,7.67
2019-04-26T11:59:02.534Z,6.50
2019-04-26T12:01:36.655Z,6.97
2019-04-26T12:04:45.300Z,7.00
2019-04-26T12:07:46.159Z,7.17
2019-04-26T12:10:19.548Z,7.33
2019-04-26T12:13:05.823Z,6.70
2019-04-26T12:15:39.169Z,7.50
2019-04-26T12:18:17.859Z,8.43
2019-04-26T12:20:51.074Z,7.93
2019-04-26T12:23:35.352Z,7.93
2019-04-26T12:26:21.751Z,8.57
2019-04-26T12:28:53.030Z,8.83
2019-04-26T12:31:26.648Z,8.93
2019-04-26T12:34:00.496Z,8.87
2019-04-26T12:36:33.580Z,9.30
2019-04-26T12:39:09.911Z,10.10
2019-04-26T12:41:43.868Z,9.77
2019-04-26T12:44:17.251Z,9.73
2019-04-26T12:47:26.750Z,9.93
2019-04-26T12:50:00.527Z,8.90
2019-04-26T12:52:33.803Z,10.17
2019-04-26T12:55:07.430Z,9.37
2019-04-26T12:57:42.317Z,9.53
2019-04-26T13:00:33.121Z,9.83
2019-04-26T13:03:20.204Z,10.00
2019-04-26T13:05:49.251Z,10.63
2019-04-26T13:08:23.575Z,12.17
2019-04-26T13:11:18.879Z,12.43
2019-04-26T13:14:20.383Z,13.00
2019-04-26T13:17:02.273Z,15.37
2019-04-26T13:19:35.906Z,16.00
2019-04-26T13:22:22.008Z,16.20
2019-04-26T13:24:55.872Z,16.63
2019-04-26T13:27:33.551Z,16.63
2019-04-26T13:30:10.602Z,17.37
2019-04-26T13:32:49.186Z,17.83
2019-04-26T13:35:22.378Z,17.37
2019-04-26T13:37:56.339Z,16.07
2019-04-26T13:40:30.533Z,17.87
2019-04-26T13:43:03.767Z,19.80
2019-04-26T13:45:50.767Z,19.23
2019-04-26T13:48:31.004Z,17.73
2019-04-26T13:51:06.817Z,14.13
2019-04-26T13:53:40.974Z,12.93
2019-04-26T13:56:14.492Z,10.40
2019-04-26T13:58:58.290Z,10.90
2019-04-26T14:01:32.751Z,9.00
2019-04-26T14:04:17.848Z,7.80
2019-04-26T14:06:52.805Z,7.03
2019-04-26T14:09:26.648Z,6.57
2019-04-26T14:12:03.344Z,6.63
2019-04-26T14:14:35.289Z,6.47
2019-04-26T14:17:08.582Z,5.73
2019-04-26T14:19:45.303Z,6.47
2019-04-26T14:22:22.875Z,5.80
2019-04-26T14:25:16.213Z,6.00
2019-04-26T14:27:51.829Z,5.33
2019-04-26T14:30:25.490Z,5.23
2019-04-26T14:33:08.613Z,5.97
2019-04-26T14:35:52.137Z,5.37
2019-04-26T14:38:27.902Z,5.53
2019-04-26T14:41:04.223Z,5.07
2019-04-26T14:43:40.878Z,4.83
2019-04-26T14:46:19.303Z,4.90
2019-04-26T14:49:01.395Z,5.30
2019-04-26T14:51:27.847Z,4.60
2019-04-26T14:54:01.022Z,4.40
2019-04-26T14:56:33.882Z,4.63
2019-04-26T14:59:09.911Z,4.70
2019-04-26T15:02:22.737Z,4.53
2019-04-26T15:05:09.442Z,4.83
2019-04-26T15:07:49.442Z,4.47
2019-04-26T15:10:19.028Z,5.27
2019-04-26T15:13:01.438Z,5.27
2019-04-26T15:15:33.195Z,4.93
2019-04-26T15:18:03.074Z,5.17
2019-04-26T15:20:37.315Z,5.10
2019-04-26T15:23:10.847Z,5.40
2019-04-26T15:25:48.843Z,5.30
2019-04-26T15:28:22.120Z,5.50
2019-04-26T15:30:55.412Z,4.70
2019-04-26T15:33:28.592Z,5.20
2019-04-26T15:36:02.394Z,5.37
2019-04-26T15:38:41.716Z,5.70
2019-04-26T15:41:35.155Z,5.67
2019-04-26T15:44:28.452Z,5.63
2019-04-26T15:47:10.037Z,6.33
2019-04-26T15:50:03.899Z,5.77
2019-04-26T15:52:37.550Z,5.80
2019-04-26T15:55:11.191Z,5.67
2019-04-26T15:57:44.744Z,6.17
2019-04-26T16:00:18.229Z,5.10
2019-04-26T16:02:52.802Z,6.07
2019-04-26T16:05:29.879Z,5.80
2019-04-26T16:08:04.574Z,6.23
2019-04-26T16:10:49.609Z,6.17
2019-04-26T16:13:24.092Z,6.30
2019-04-26T16:15:59.551Z,6.60
2019-04-26T16:18:32.356Z,7.13
2019-04-26T16:21:06.169Z,7.73
2019-04-26T16:23:53.641Z,6.70
2019-04-26T16:26:24.233Z,7.30
2019-04-26T16:29:25.663Z,7.00
2019-04-26T16:32:21.653Z,6.93
2019-04-26T16:34:52.834Z,6.43
2019-04-26T16:37:26.418Z,6.80
2019-04-26T16:39:59.950Z,6.47
2019-04-26T16:42:49.737Z,6.87
2019-04-26T16:45:37.215Z,7.40
2019-04-26T16:48:25.440Z,7.63
2019-04-26T16:51:00.986Z,7.93
2019-04-26T16:53:45.661Z,7.53
2019-04-26T16:56:06.879Z,7.63
2019-04-26T16:58:44.987Z,7.57
2019-04-26T17:01:15.763Z,8.37
2019-04-26T17:03:49.652Z,8.23
2019-04-26T17:06:23.411Z,8.63
2019-04-26T17:09:01.158Z,8.70
2019-04-26T17:11:48.875Z,9.20
2019-04-26T17:14:33.940Z,8.73
2019-04-26T17:17:15.551Z,8.60
2019-04-26T17:19:52.110Z,9.33
2019-04-26T17:23:00.629Z,9.10
2019-04-26T17:26:04.193Z,9.70
2019-04-26T17:28:37.887Z,10.37
2019-04-26T17:31:12.466Z,10.87
2019-04-26T17:33:55.362Z,9.87
2019-04-26T17:36:38.283Z,10.57
2019-04-26T17:39:22.334Z,10.03
2019-04-26T17:41:55.791Z,10.87
2019-04-26T17:44:30.737Z,10.37
2019-04-26T17:47:08.353Z,10.73
2019-04-26T17:49:43.785Z,10.80
2019-04-26T17:52:16.237Z,11.47
2019-04-26T17:54:51.953Z,11.73
2019-04-26T17:57:33.653Z,11.43
2019-04-26T18:00:27.182Z,11.80
2019-04-26T18:03:07.545Z,11.90
2019-04-26T18:05:55.877Z,12.97
2019-04-26T18:08:33.693Z,11.77
2019-04-26T18:10:49.359Z,12.17
2019-04-26T18:13:32.196Z,12.83
2019-04-26T18:16:06.833Z,13.27
2019-04-26T18:19:05.308Z,13.63
2019-04-26T18:21:59.983Z,12.73
2019-04-26T18:24:34.968Z,14.60
2019-04-26T18:27:08.656Z,14.87
2019-04-26T18:29:43.660Z,14.80
2019-04-26T18:32:17.019Z,15.13
2019-04-26T18:35:00.979Z,15.90
2019-04-26T18:37:36.480Z,15.67
2019-04-26T18:40:09.761Z,15.73
2019-04-26T18:42:43.422Z,16.80
2019-04-26T18:45:25.893Z,16.83
2019-04-26T18:47:54.796Z,16.97
2019-04-26T18:50:32.798Z,16.97
2019-04-26T18:53:22.182Z,20.53
2019-04-26T18:55:59.286Z,22.67
2019-04-26T18:58:34.762Z,19.87
2019-04-26T19:01:06.856Z,19.57
2019-04-26T19:03:40.095Z,20.40
2019-04-26T19:06:31.111Z,19.23
2019-04-26T19:09:09.399Z,18.97
2019-04-26T19:11:48.622Z,20.17
2019-04-26T19:15:02.721Z,19.67
2019-04-26T19:18:05.420Z,20.53
2019-04-26T19:20:53.675Z,21.33
2019-04-26T19:23:44.735Z,21.13
2019-04-26T19:26:33.124Z,22.57
2019-04-26T19:29:09.954Z,22.57
2019-04-26T19:31:37.526Z,23.10
2019-04-26T19:34:11.677Z,21.93
2019-04-26T19:36:56.377Z,22.20
2019-04-26T19:39:38.595Z,24.30
2019-04-26T19:42:30.700Z,23.47
2019-04-26T19:45:14.243Z,25.10
2019-04-26T19:47:53.327Z,24.47
2019-04-26T19:50:50.028Z,25.13
2019-04-26T19:53:51.733Z,23.67
2019-04-26T19:56:31.514Z,24.43
2019-04-26T19:59:05.297Z,24.70
2019-04-26T20:01:40.216Z,23.77
2019-04-26T20:04:13.660Z,23.10
2019-04-26T20:06:48.472Z,24.80
2019-04-26T20:09:32.534Z,23.03
2019-04-26T20:12:14.920Z,22.67
2019-04-26T20:14:51.210Z,24.57
2019-04-26T20:17:23.435Z,23.93
2019-04-26T20:19:57.343Z,24.73
2019-04-26T20:22:32.113Z,24.87
2019-04-26T20:25:18.857Z,26.53
2019-04-26T20:27:53.774Z,24.93
2019-04-26T20:31:07.671Z,25.07
2019-04-26T20:33:38.266Z,25.53
2019-04-26T20:36:21.650Z,24.93
2019-04-26T20:39:07.761Z,26.13
2019-04-26T20:42:01.154Z,26.90
2019-04-26T20:44:50.475Z,27.10
2019-04-26T20:47:17.428Z,28.03
2019-04-26T20:50:01.364Z,27.13
2019-04-26T20:52:32.866Z,27.77
2019-04-26T20:55:06.658Z,27.90
2019-04-26T20:57:42.710Z,27.83
2019-04-26T21:00:18.094Z,26.80
2019-04-26T21:02:54.163Z,26.23
2019-04-26T21:05:27.441Z,26.53
2019-04-26T21:08:03.450Z,27.20
2019-04-26T21:10:48.168Z,27.13
2019-04-26T21:13:23.686Z,29.50
2019-04-26T21:15:58.453Z,27.37
2019-04-26T21:18:33.794Z,29.13
2019-04-26T21:21:10.673Z,29.93
2019-04-26T21:23:43.989Z,30.20
2019-04-26T21:26:32.324Z,30.80
2019-04-26T21:29:20.460Z,28.90
2019-04-26T21:32:02.305Z,28.83
2019-04-26T21:34:36.572Z,29.40
2019-04-26T21:37:35.984Z,28.87
2019-04-26T21:40:34.700Z,28.60
2019-04-26T21:43:08.291Z,27.77
2019-04-26T21:45:43.949Z,30.50
2019-04-26T21:48:18.383Z,28.07
2019-04-26T21:50:53.748Z,28.37
2019-04-26T21:53:29.712Z,29.10
2019-04-26T21:56:03.013Z,28.17
2019-04-26T21:58:37.102Z,28.73
2019-04-26T22:01:25.267Z,28.63
2019-04-26T22:04:10.853Z,27.07
2019-04-26T22:06:44.758Z,29.40
2019-04-26T22:09:52.936Z,29.03
2019-04-26T22:12:30.928Z,28.80
2019-04-26T22:15:25.285Z,27.73
2019-04-26T22:18:24.711Z,28.60
2019-04-26T22:21:28.880Z,29.03
2019-04-26T22:24:16.855Z,28.00
2019-04-26T22:26:50.422Z,28.37
2019-04-26T22:29:25.793Z,28.63
2019-04-26T22:31:59.013Z,28.07
2019-04-26T22:34:33.167Z,28.40
2019-04-26T22:37:11.142Z,29.00
2019-04-26T22:39:44.221Z,29.37
2019-04-26T22:42:18.321Z,28.73
2019-04-26T22:45:09.486Z,28.10
2019-04-26T22:47:53.603Z,28.03
2019-04-26T22:50:40.839Z,28.70
2019-04-26T22:53:14.384Z,29.77
2019-04-26T22:55:48.296Z,30.37
2019-04-26T22:58:30.986Z,33.87
2019-04-26T23:01:06.345Z,32.67
2019-04-26T23:03:41.129Z,31.10
2019-04-26T23:06:27.319Z,30.73
2019-04-26T23:09:20.745Z,29.77
2019-04-26T23:12:00.020Z,30.67
2019-04-26T23:14:48.166Z,30.40
2019-04-26T23:17:40.511Z,30.33
2019-04-26T23:20:34.390Z,31.33
2019-04-26T23:23:08.523Z,30.47
2019-04-26T23:25:52.402Z,32.23
2019-04-26T23:28:27.769Z,33.50
2019-04-26T23:31:05.131Z,31.97
2019-04-26T23:33:36.589Z,31.73
2019-04-26T23:36:10.847Z,31.30
2019-04-26T23:38:53.648Z,29.80
2019-04-26T23:41:37.631Z,30.40
2019-04-26T23:44:10.079Z,29.97
2019-04-26T23:46:43.372Z,29.90
2019-04-26T23:49:19.320Z,31.00
2019-04-26T23:51:53.362Z,30.33
2019-04-26T23:54:28.012Z,30.90
2019-04-26T23:57:13.827Z,31.40
2019-04-26T23:59:51.091Z,31.20
